Hc Svea Kim — V2BB — position and weather

sailwx.info

Track history (hours):
 
Tides and Currents Weather Stations Pressure Air Temp Water Temp Dewpoint Dewpoint Depression Visibility Wind Speed Wind Dir Waves Ship Positions

Hc Svea Kim

Last reported at 2017-Feb-18 19:33 UTC. Time now 2017-Feb-20 11:22 UTC.
Position N 36°32' E 014°23'.

Length 129 m; draft 8.5 m.

Type: Cargo ship. MMSI: 304182000.

Date/timePositionNaut miles runAvg speedWind from/ knotsBaromVisibWave heightAir tempDewpointWater temp
2017-Feb-18 19:33N 36°32' E 014°23'1211.9
2017-Feb-18 18:33N 36°29' E 014°37'254 9.8
2017-Feb-17 16:33N 40°13' E 017°08'1111.2
2017-Feb-17 15:32N 40°24' E 017°05'7 0.7
2017-Feb-17 05:30N 40°30' E 017°10'0 0.0
2017-Feb-17 04:33N 40°30' E 017°10'0 0.0
2017-Feb-17 03:33N 40°30' E 017°10'0 0.0
2017-Feb-17 02:33N 40°30' E 017°10'0 0.0
2017-Feb-17 01:33N 40°30' E 017°10'0 0.0
2017-Feb-17 00:33N 40°30' E 017°10'0 0.0
2017-Feb-16 23:33N 40°30' E 017°10'0 0.0
2017-Feb-16 22:33N 40°30' E 017°10'0 0.0
2017-Feb-16 21:33N 40°30' E 017°10'0 0.0
2017-Feb-16 20:33N 40°30' E 017°10'0 0.0
2017-Feb-16 19:33N 40°30' E 017°10'0 0.0
2017-Feb-16 18:33N 40°30' E 017°10'0 0.0
2017-Feb-16 17:33N 40°30' E 017°10'0 0.0
2017-Feb-16 16:33N 40°30' E 017°10'0 0.0
2017-Feb-16 15:33N 40°30' E 017°10'0 0.0
2017-Feb-16 14:33N 40°30' E 017°10'0 0.0
2017-Feb-16 13:33N 40°30' E 017°10'0 0.0
2017-Feb-16 12:33N 40°30' E 017°10'0 0.0
2017-Feb-16 00:33N 40°30' E 017°10'0 0.0
2017-Feb-15 23:33N 40°30' E 017°10'0 0.0
2017-Feb-15 22:33N 40°30' E 017°10'0 0.0
2017-Feb-15 21:33N 40°30' E 017°10'0 0.0
2017-Feb-15 20:33N 40°30' E 017°10'0 0.0
2017-Feb-15 19:33N 40°30' E 017°10'0 0.0
2017-Feb-15 18:30N 40°30' E 017°10'0 0.0
2017-Feb-15 17:33N 40°30' E 017°10'0 0.0
2017-Feb-15 16:33N 40°30' E 017°10'0 0.0
2017-Feb-15 15:33N 40°30' E 017°10'0 0.0
2017-Feb-15 14:33N 40°30' E 017°10'0 0.0
2017-Feb-15 13:33N 40°30' E 017°10'0 0.0
2017-Feb-15 12:33N 40°30' E 017°10'0 0.0
2017-Feb-15 11:33N 40°30' E 017°10'0 0.0
2017-Feb-15 10:33N 40°30' E 017°10'0 0.0
2017-Feb-15 09:33N 40°30' E 017°10'0 0.0
2017-Feb-15 08:33N 40°30' E 017°10'0 0.0
2017-Feb-15 07:33N 40°30' E 017°10'0 0.0
2017-Feb-15 06:33N 40°30' E 017°10'0 0.0
2017-Feb-15 05:33N 40°30' E 017°10'0 0.0
2017-Feb-15 04:33N 40°30' E 017°10'0 0.0
2017-Feb-15 03:33N 40°30' E 017°10'0 0.0
2017-Feb-15 02:33N 40°30' E 017°10'0 0.0
2017-Feb-15 01:33N 40°30' E 017°10'0 0.0
2017-Feb-15 00:33N 40°30' E 017°10'0 0.0
2017-Feb-14 23:33N 40°30' E 017°10'0 0.0
2017-Feb-14 22:33N 40°30' E 017°10'0 0.0
2017-Feb-14 21:33N 40°30' E 017°10'0 0.0
2017-Feb-14 20:33N 40°30' E 017°10'0 0.0
2017-Feb-14 19:33N 40°30' E 017°10'0 0.0
2017-Feb-14 18:33N 40°30' E 017°10'0 0.0
2017-Feb-14 17:33N 40°30' E 017°10'0 0.0
2017-Feb-14 16:33N 40°30' E 017°10'0 0.0
2017-Feb-14 15:33N 40°30' E 017°10'0 0.0
2017-Feb-14 14:33N 40°30' E 017°10'0 0.0
2017-Feb-14 13:33N 40°30' E 017°10'0 0.0
2017-Feb-14 12:33N 40°30' E 017°10'0 0.0
2017-Feb-14 11:33N 40°30' E 017°10'0 0.0
2017-Feb-14 10:33N 40°30' E 017°10'0 0.0
2017-Feb-14 09:33N 40°30' E 017°10'0 0.0
2017-Feb-14 08:33N 40°30' E 017°10'0 0.0
2017-Feb-14 07:33N 40°30' E 017°10'0 0.0
2017-Feb-13 16:18N 40°30' E 017°10'0 0.0
2017-Feb-13 15:33N 40°30' E 017°10'0 0.0
2017-Feb-13 14:33N 40°30' E 017°10'0 0.0
2017-Feb-13 13:33N 40°30' E 017°10'4 4.2
2017-Feb-13 12:33N 40°26' E 017°10'3 3.0
2017-Feb-13 11:32N 40°28' E 017°13'0 0.0
2017-Feb-13 10:32N 40°28' E 017°13'0 0.1
2017-Feb-13 09:32N 40°28' E 017°13'0 0.0
2017-Feb-13 08:32N 40°28' E 017°13'269 6.0
2017-Feb-11 11:27N 36°28' E 014°37'1112.4
2017-Feb-11 10:33N 36°29' E 014°23'1312.4
2017-Feb-11 09:31N 36°32' E 014°07'  
Track history (hours):
 
Tides and Currents Weather Stations Pressure Air Temp Water Temp Dewpoint Dewpoint Depression Visibility Wind Speed Wind Dir Waves Ship Positions

Hc Svea Kim

Last reported at 2017-Feb-18 19:33 UTC. Time now 2017-Feb-20 11:22 UTC.
Position N 36°32' E 014°23'.

Length 129 m; draft 8.5 m.

Type: Cargo ship. MMSI: 304182000.

Date/timePositionNaut miles runAvg speedWind from/ knotsBaromVisibWave heightAir tempDewpointWater temp
2017-Feb-18 19:33N 36°32' E 014°23'1211.9
2017-Feb-18 18:33N 36°29' E 014°37'254 9.8
2017-Feb-17 16:33N 40°13' E 017°08'1111.2
2017-Feb-17 15:32N 40°24' E 017°05'7 0.7
2017-Feb-17 05:30N 40°30' E 017°10'0 0.0
2017-Feb-17 04:33N 40°30' E 017°10'0 0.0
2017-Feb-17 03:33N 40°30' E 017°10'0 0.0
2017-Feb-17 02:33N 40°30' E 017°10'0 0.0
2017-Feb-17 01:33N 40°30' E 017°10'0 0.0
2017-Feb-17 00:33N 40°30' E 017°10'0 0.0
2017-Feb-16 23:33N 40°30' E 017°10'0 0.0
2017-Feb-16 22:33N 40°30' E 017°10'0 0.0
2017-Feb-16 21:33N 40°30' E 017°10'0 0.0
2017-Feb-16 20:33N 40°30' E 017°10'0 0.0
2017-Feb-16 19:33N 40°30' E 017°10'0 0.0
2017-Feb-16 18:33N 40°30' E 017°10'0 0.0
2017-Feb-16 17:33N 40°30' E 017°10'0 0.0
2017-Feb-16 16:33N 40°30' E 017°10'0 0.0
2017-Feb-16 15:33N 40°30' E 017°10'0 0.0
2017-Feb-16 14:33N 40°30' E 017°10'0 0.0
2017-Feb-16 13:33N 40°30' E 017°10'0 0.0
2017-Feb-16 12:33N 40°30' E 017°10'0 0.0
2017-Feb-16 00:33N 40°30' E 017°10'0 0.0
2017-Feb-15 23:33N 40°30' E 017°10'0 0.0
2017-Feb-15 22:33N 40°30' E 017°10'0 0.0
2017-Feb-15 21:33N 40°30' E 017°10'0 0.0
2017-Feb-15 20:33N 40°30' E 017°10'0 0.0
2017-Feb-15 19:33N 40°30' E 017°10'0 0.0
2017-Feb-15 18:30N 40°30' E 017°10'0 0.0
2017-Feb-15 17:33N 40°30' E 017°10'0 0.0
2017-Feb-15 16:33N 40°30' E 017°10'0 0.0
2017-Feb-15 15:33N 40°30' E 017°10'0 0.0
2017-Feb-15 14:33N 40°30' E 017°10'0 0.0
2017-Feb-15 13:33N 40°30' E 017°10'0 0.0
2017-Feb-15 12:33N 40°30' E 017°10'0 0.0
2017-Feb-15 11:33N 40°30' E 017°10'0 0.0
2017-Feb-15 10:33N 40°30' E 017°10'0 0.0
2017-Feb-15 09:33N 40°30' E 017°10'0 0.0
2017-Feb-15 08:33N 40°30' E 017°10'0 0.0
2017-Feb-15 07:33N 40°30' E 017°10'0 0.0
2017-Feb-15 06:33N 40°30' E 017°10'0 0.0
2017-Feb-15 05:33N 40°30' E 017°10'0 0.0
2017-Feb-15 04:33N 40°30' E 017°10'0 0.0
2017-Feb-15 03:33N 40°30' E 017°10'0 0.0
2017-Feb-15 02:33N 40°30' E 017°10'0 0.0
2017-Feb-15 01:33N 40°30' E 017°10'0 0.0
2017-Feb-15 00:33N 40°30' E 017°10'0 0.0
2017-Feb-14 23:33N 40°30' E 017°10'0 0.0
2017-Feb-14 22:33N 40°30' E 017°10'0 0.0
2017-Feb-14 21:33N 40°30' E 017°10'0 0.0
2017-Feb-14 20:33N 40°30' E 017°10'0 0.0
2017-Feb-14 19:33N 40°30' E 017°10'0 0.0
2017-Feb-14 18:33N 40°30' E 017°10'0 0.0
2017-Feb-14 17:33N 40°30' E 017°10'0 0.0
2017-Feb-14 16:33N 40°30' E 017°10'0 0.0
2017-Feb-14 15:33N 40°30' E 017°10'0 0.0
2017-Feb-14 14:33N 40°30' E 017°10'0 0.0
2017-Feb-14 13:33N 40°30' E 017°10'0 0.0
2017-Feb-14 12:33N 40°30' E 017°10'0 0.0
2017-Feb-14 11:33N 40°30' E 017°10'0 0.0
2017-Feb-14 10:33N 40°30' E 017°10'0 0.0
2017-Feb-14 09:33N 40°30' E 017°10'0 0.0
2017-Feb-14 08:33N 40°30' E 017°10'0 0.0
2017-Feb-14 07:33N 40°30' E 017°10'0 0.0
2017-Feb-13 16:18N 40°30' E 017°10'0 0.0
2017-Feb-13 15:33N 40°30' E 017°10'0 0.0
2017-Feb-13 14:33N 40°30' E 017°10'0 0.0
2017-Feb-13 13:33N 40°30' E 017°10'4 4.2
2017-Feb-13 12:33N 40°26' E 017°10'3 3.0
2017-Feb-13 11:32N 40°28' E 017°13'0 0.0
2017-Feb-13 10:32N 40°28' E 017°13'0 0.1
2017-Feb-13 09:32N 40°28' E 017°13'0 0.0
2017-Feb-13 08:32N 40°28' E 017°13'269 6.0
2017-Feb-11 11:27N 36°28' E 014°37'1112.4
2017-Feb-11 10:33N 36°29' E 014°23'1312.4
2017-Feb-11 09:31N 36°32' E 014°07'  

Dump ship's entire track history